Time;durP1;ratioP1;P1;durP2;ratioP2;P2;SDS_P1;SDS_P2;PMS_P1;PMS_P2;Temp;Humidity;BMP_temperature;BMP_pressure;BME280_temperature;BME280_humidity;BME280_pressure;Samples;Min_cycle;Max_cycle;Signal;HPM_P1;HPM_P2
2021/09/25 00:01:22;;;;;;;16.80;14.20;;;;;;;;;;5094686;28;20105;-71
2021/09/25 00:03:48;;;;;;;18.42;13.40;;;;;;;;;;5094756;28;20036;-71
2021/09/25 00:06:14;;;;;;;16.42;13.40;;;;;;;;;;5094117;28;20466;-71
2021/09/25 00:08:40;;;;;;;15.45;13.90;;;;;;;;;;5094683;28;20042;-71
2021/09/25 00:11:06;;;;;;;16.27;14.25;;;;;;;;;;5094503;28;20489;-71
2021/09/25 00:13:33;;;;;;;14.30;12.95;;;;;;;;;;5094823;28;20020;-72
2021/09/25 00:15:59;;;;;;;16.15;14.18;;;;;;;;;;5094761;28;20024;-72
2021/09/25 00:18:25;;;;;;;14.35;12.73;;;;;;;;;;5094131;28;20073;-71
2021/09/25 00:20:51;;;;;;;16.58;14.45;;;;;;;;;;5094303;28;20028;-72
2021/09/25 00:23:17;;;;;;;20.63;14.07;;;;;;;;;;5094613;28;20024;-71
2021/09/25 00:25:43;;;;;;;15.57;13.63;;;;;;;;;;5093730;28;20028;-71
2021/09/25 00:28:09;;;;;;;14.68;13.23;;;;;;;;;;5094084;28;20024;-71
2021/09/25 00:30:35;;;;;;;14.98;13.48;;;;;;;;;;5094228;28;20028;-71
2021/09/25 00:33:01;;;;;;;13.65;12.00;;;;;;;;;;5094303;28;20464;-71
2021/09/25 00:35:27;;;;;;;14.88;13.30;;;;;;;;;;5093898;28;20478;-71
2021/09/25 00:37:53;;;;;;;17.13;13.43;;;;;;;;;;5094541;28;20500;-71
2021/09/25 00:40:19;;;;;;;16.45;13.20;;;;;;;;;;5093961;28;20481;-71
2021/09/25 00:42:46;;;;;;;14.05;12.15;;;;;;;;;;5094667;28;20034;-71
2021/09/25 00:45:12;;;;;;;15.68;13.98;;;;;;;;;;5094249;28;20077;-71
2021/09/25 00:47:38;;;;;;;14.35;12.88;;;;;;;;;;5094067;28;20022;-71
2021/09/25 00:50:04;;;;;;;12.48;11.23;;;;;;;;;;5093802;28;20024;-70
2021/09/25 00:52:30;;;;;;;16.70;11.48;;;;;;;;;;5093901;28;20453;-70
2021/09/25 00:54:57;;;;;;;14.82;13.05;;;;;;;;;;5094343;28;20470;-70
2021/09/25 00:57:23;;;;;;;14.68;12.65;;;;;;;;;;5094145;28;20048;-70
2021/09/25 00:59:49;;;;;;;15.85;12.02;;;;;;;;;;5094014;28;20169;-70
2021/09/25 01:02:17;;;;;;;15.85;12.35;;;;;;;;;;5093650;28;20024;-71
2021/09/25 01:04:43;;;;;;;13.48;11.60;;;;;;;;;;5094003;28;20032;-71
2021/09/25 01:07:09;;;;;;;14.70;11.77;;;;;;;;;;5094022;28;20027;-71
2021/09/25 01:09:35;;;;;;;13.32;11.13;;;;;;;;;;5094138;28;20025;-71
2021/09/25 01:12:01;;;;;;;12.85;11.48;;;;;;;;;;5093802;28;20024;-70
2021/09/25 01:14:31;;;;;;;12.00;10.90;;;;;;;;;;5093544;28;20108;-71
2021/09/25 01:17:03;;;;;;;12.65;11.30;;;;;;;;;;5093915;28;20530;-70
2021/09/25 01:19:29;;;;;;;15.23;12.20;;;;;;;;;;5093968;28;20449;-71
2021/09/25 01:21:55;;;;;;;17.70;11.23;;;;;;;;;;5093545;28;20024;-70
2021/09/25 01:24:21;;;;;;;11.75;10.55;;;;;;;;;;5093569;28;20044;-71
2021/09/25 01:26:47;;;;;;;14.68;10.90;;;;;;;;;;5093625;28;20020;-70
2021/09/25 01:29:13;;;;;;;11.77;10.10;;;;;;;;;;5094125;28;20024;-71
2021/09/25 01:31:39;;;;;;;11.48;10.15;;;;;;;;;;5093838;28;20107;-71
2021/09/25 01:34:05;;;;;;;12.25;10.95;;;;;;;;;;5093671;28;20020;-71
2021/09/25 01:36:31;;;;;;;13.55;9.95;;;;;;;;;;5095477;28;20537;-70
2021/09/25 01:38:57;;;;;;;17.92;9.80;;;;;;;;;;5097501;28;20034;-71
2021/09/25 01:41:23;;;;;;;11.05;9.80;;;;;;;;;;5097823;28;20058;-70
2021/09/25 01:43:49;;;;;;;11.68;10.13;;;;;;;;;;5097221;28;20028;-70
2021/09/25 01:46:18;;;;;;;11.52;9.70;;;;;;;;;;5097189;28;20035;-71
2021/09/25 01:48:45;;;;;;;11.73;9.57;;;;;;;;;;5097392;28;20055;-71
2021/09/25 01:51:12;;;;;;;12.15;10.15;;;;;;;;;;5097281;28;20028;-71
2021/09/25 01:53:38;;;;;;;10.75;9.65;;;;;;;;;;5097285;28;20032;-70
2021/09/25 01:56:06;;;;;;;11.68;9.50;;;;;;;;;;5097186;28;20032;-70
2021/09/25 01:58:32;;;;;;;10.70;9.20;;;;;;;;;;5097274;28;20059;-70
2021/09/25 02:00:58;;;;;;;12.05;10.85;;;;;;;;;;5096854;28;20027;-72
2021/09/25 02:03:24;;;;;;;10.75;9.65;;;;;;;;;;5096790;28;20077;-70
2021/09/25 02:05:50;;;;;;;11.50;9.73;;;;;;;;;;5097018;28;20106;-70
2021/09/25 02:08:16;;;;;;;10.15;8.38;;;;;;;;;;5096690;28;20032;-71
2021/09/25 02:10:42;;;;;;;10.45;9.00;;;;;;;;;;5096843;28;20453;-70
2021/09/25 02:13:08;;;;;;;12.30;9.38;;;;;;;;;;5096661;28;20020;-71
2021/09/25 02:15:34;;;;;;;13.00;8.98;;;;;;;;;;5096488;28;20025;-71
2021/09/25 02:18:01;;;;;;;11.15;9.98;;;;;;;;;;5096850;28;20108;-71
2021/09/25 02:20:27;;;;;;;10.93;8.70;;;;;;;;;;5096491;28;20111;-70
2021/09/25 02:22:53;;;;;;;10.88;9.50;;;;;;;;;;5096574;28;20492;-71
2021/09/25 02:25:19;;;;;;;9.63;8.70;;;;;;;;;;5096763;28;20112;-71
2021/09/25 02:27:49;;;;;;;12.13;9.32;;;;;;;;;;5096451;28;20024;-71
2021/09/25 02:30:15;;;;;;;9.43;8.55;;;;;;;;;;5096583;28;20373;-71
2021/09/25 02:32:42;;;;;;;10.05;8.77;;;;;;;;;;5096500;28;20358;-71
2021/09/25 02:35:08;;;;;;;8.90;8.00;;;;;;;;;;5097005;28;20024;-70
2021/09/25 02:37:34;;;;;;;9.43;8.40;;;;;;;;;;5096559;28;20028;-71
2021/09/25 02:40:00;;;;;;;9.38;8.45;;;;;;;;;;5096119;28;20081;-71
2021/09/25 02:42:26;;;;;;;9.43;8.25;;;;;;;;;;5096125;28;20107;-71
2021/09/25 02:44:52;;;;;;;9.77;7.95;;;;;;;;;;5095790;28;20040;-71
2021/09/25 02:47:18;;;;;;;9.05;8.15;;;;;;;;;;5095434;28;20024;-70
2021/09/25 02:49:44;;;;;;;10.57;8.18;;;;;;;;;;5095918;28;20020;-71
2021/09/25 02:52:11;;;;;;;9.68;8.10;;;;;;;;;;5095876;28;20023;-70
2021/09/25 02:54:37;;;;;;;13.50;8.63;;;;;;;;;;5095995;28;20074;-71
2021/09/25 02:57:03;;;;;;;9.85;8.20;;;;;;;;;;5095799;28;20143;-70
2021/09/25 02:59:29;;;;;;;10.18;8.35;;;;;;;;;;5096179;28;20051;-71
2021/09/25 03:01:55;;;;;;;11.48;10.38;;;;;;;;;;5095615;28;20081;-71
2021/09/25 03:04:21;;;;;;;9.10;8.20;;;;;;;;;;5095598;28;20043;-71
2021/09/25 03:06:48;;;;;;;9.45;7.85;;;;;;;;;;5095820;28;20021;-71
2021/09/25 03:09:14;;;;;;;7.30;6.70;;;;;;;;;;5095642;28;20367;-71
2021/09/25 03:11:40;;;;;;;8.88;7.75;;;;;;;;;;5095826;28;20039;-70
2021/09/25 03:14:06;;;;;;;11.73;8.18;;;;;;;;;;5095166;28;20020;-71
2021/09/25 03:16:32;;;;;;;9.38;8.35;;;;;;;;;;5095630;28;20342;-70
2021/09/25 03:18:58;;;;;;;8.82;7.72;;;;;;;;;;5096142;28;20077;-70
2021/09/25 03:21:24;;;;;;;8.50;7.68;;;;;;;;;;5095616;28;20027;-70
2021/09/25 03:23:51;;;;;;;8.18;7.38;;;;;;;;;;5095121;28;20024;-71
2021/09/25 03:26:18;;;;;;;8.18;7.40;;;;;;;;;;5095066;28;20055;-71
2021/09/25 03:28:44;;;;;;;9.07;7.57;;;;;;;;;;5095033;28;20530;-71
2021/09/25 03:31:10;;;;;;;9.52;7.55;;;;;;;;;;5095235;28;20487;-71
2021/09/25 03:33:36;;;;;;;11.60;7.60;;;;;;;;;;5095337;28;20092;-70
2021/09/25 03:36:02;;;;;;;8.63;7.72;;;;;;;;;;5095500;28;20032;-71
2021/09/25 03:38:29;;;;;;;10.63;7.45;;;;;;;;;;5094818;28;20021;-71
2021/09/25 03:40:55;;;;;;;8.82;7.97;;;;;;;;;;5095260;28;20039;-71
2021/09/25 03:43:21;;;;;;;9.10;8.07;;;;;;;;;;5094704;28;20073;-71
2021/09/25 03:45:47;;;;;;;9.27;7.88;;;;;;;;;;5095176;28;20367;-71
2021/09/25 03:48:13;;;;;;;8.85;7.50;;;;;;;;;;5094823;28;20020;-70
2021/09/25 03:50:40;;;;;;;7.68;6.85;;;;;;;;;;5095062;28;20388;-71
2021/09/25 03:53:06;;;;;;;7.95;6.80;;;;;;;;;;5094851;28;20027;-71
2021/09/25 03:55:32;;;;;;;8.25;7.10;;;;;;;;;;5094730;28;20039;-71
2021/09/25 03:57:58;;;;;;;8.25;7.32;;;;;;;;;;5095290;28;20056;-71
2021/09/25 04:00:24;;;;;;;8.52;7.72;;;;;;;;;;5094401;28;20028;-71
2021/09/25 04:02:51;;;;;;;7.22;6.53;;;;;;;;;;5094848;28;20073;-70
2021/09/25 04:05:18;;;;;;;7.65;6.55;;;;;;;;;;5094920;28;20039;-71
2021/09/25 04:07:44;;;;;;;8.85;7.22;;;;;;;;;;5094657;28;20081;-71
2021/09/25 04:10:10;;;;;;;11.00;8.32;;;;;;;;;;5094416;28;20150;-71
2021/09/25 04:12:36;;;;;;;8.40;6.43;;;;;;;;;;5094371;28;20157;-71
2021/09/25 04:15:03;;;;;;;8.13;6.72;;;;;;;;;;5094415;28;20024;-71
2021/09/25 04:17:29;;;;;;;12.02;7.63;;;;;;;;;;5094778;28;20031;-71
2021/09/25 04:19:55;;;;;;;7.90;7.07;;;;;;;;;;5094605;28;20020;-71
2021/09/25 04:22:21;;;;;;;8.65;7.85;;;;;;;;;;5094258;28;20031;-71
2021/09/25 04:24:47;;;;;;;7.80;7.10;;;;;;;;;;5094589;28;20039;-71
2021/09/25 04:27:13;;;;;;;8.60;6.80;;;;;;;;;;5094304;28;20024;-71
2021/09/25 04:29:39;;;;;;;8.55;7.75;;;;;;;;;;5094083;28;20082;-71
2021/09/25 04:32:06;;;;;;;8.80;6.22;;;;;;;;;;5094416;28;20541;-75
2021/09/25 04:34:32;;;;;;;7.35;6.57;;;;;;;;;;5094572;28;20477;-71
2021/09/25 04:36:58;;;;;;;9.52;7.88;;;;;;;;;;5094243;28;20024;-70
2021/09/25 04:39:24;;;;;;;7.38;6.72;;;;;;;;;;5094125;28;20486;-70
2021/09/25 04:41:51;;;;;;;7.03;6.10;;;;;;;;;;5090879;28;20031;-70
2021/09/25 04:44:17;;;;;;;7.88;6.90;;;;;;;;;;5093971;28;20035;-72
2021/09/25 04:46:43;;;;;;;8.57;6.80;;;;;;;;;;5095523;28;20028;-71
2021/09/25 04:49:09;;;;;;;7.93;5.82;;;;;;;;;;5095385;28;20093;-71
2021/09/25 04:51:36;;;;;;;7.00;6.18;;;;;;;;;;5093715;28;20016;-69
2021/09/25 04:54:03;;;;;;;11.73;7.10;;;;;;;;;;5094273;28;20103;-69
2021/09/25 04:56:30;;;;;;;7.45;6.63;;;;;;;;;;5094117;28;20031;-72
2021/09/25 04:58:56;;;;;;;6.82;6.13;;;;;;;;;;5094505;28;20416;-71
2021/09/25 05:01:22;;;;;;;10.50;7.15;;;;;;;;;;5095702;28;20064;-72
2021/09/25 05:03:48;;;;;;;8.98;6.63;;;;;;;;;;5094543;28;20024;-72
2021/09/25 05:06:14;;;;;;;6.80;6.10;;;;;;;;;;5093875;28;20032;-71
2021/09/25 05:08:41;;;;;;;7.78;6.97;;;;;;;;;;5094527;28;20363;-71
2021/09/25 05:11:07;;;;;;;6.82;6.22;;;;;;;;;;5095632;28;20028;-73
2021/09/25 05:13:33;;;;;;;7.57;6.78;;;;;;;;;;5096508;28;20065;-71
2021/09/25 05:15:59;;;;;;;7.03;6.15;;;;;;;;;;5098750;28;20054;-69
2021/09/25 05:18:25;;;;;;;8.50;5.63;;;;;;;;;;5098017;28;20020;-70
2021/09/25 05:20:52;;;;;;;7.45;5.55;;;;;;;;;;5098587;28;20028;-71
2021/09/25 05:23:19;;;;;;;8.15;5.88;;;;;;;;;;5096833;28;20028;-70
2021/09/25 05:25:45;;;;;;;6.47;5.85;;;;;;;;;;5098185;28;20111;-73
2021/09/25 05:28:11;;;;;;;7.80;6.47;;;;;;;;;;5097012;28;20484;-71
2021/09/25 05:30:39;;;;;;;7.85;5.50;;;;;;;;;;5093915;28;20020;-72
2021/09/25 05:33:07;;;;;;;5.70;5.20;;;;;;;;;;5093099;28;20026;-72
2021/09/25 05:35:33;;;;;;;14.05;5.50;;;;;;;;;;5094779;28;20020;-70
2021/09/25 05:37:59;;;;;;;6.68;6.07;;;;;;;;;;5097446;28;20028;-72
2021/09/25 05:40:25;;;;;;;7.40;6.45;;;;;;;;;;5097800;28;20139;-69
2021/09/25 05:42:51;;;;;;;16.58;6.22;;;;;;;;;;5096370;28;20064;-69
2021/09/25 05:45:18;;;;;;;6.22;5.55;;;;;;;;;;5097784;28;20036;-71
2021/09/25 05:47:44;;;;;;;7.80;5.95;;;;;;;;;;5098282;28;20034;-71
2021/09/25 05:50:10;;;;;;;6.80;6.18;;;;;;;;;;5097943;28;20032;-72
2021/09/25 05:52:37;;;;;;;6.45;5.85;;;;;;;;;;5096451;28;20024;-71
2021/09/25 05:55:03;;;;;;;7.53;5.97;;;;;;;;;;5098039;28;20407;-70
2021/09/25 05:57:29;;;;;;;7.43;5.85;;;;;;;;;;5097255;28;20063;-72
2021/09/25 05:59:55;;;;;;;12.07;5.70;;;;;;;;;;5097650;28;20020;-71
2021/09/25 06:02:21;;;;;;;7.07;6.43;;;;;;;;;;5096109;28;20032;-71
2021/09/25 06:04:47;;;;;;;6.95;5.95;;;;;;;;;;5097130;28;20039;-70
2021/09/25 06:07:15;;;;;;;9.70;6.38;;;;;;;;;;5097233;28;20077;-73
2021/09/25 06:09:41;;;;;;;7.53;5.95;;;;;;;;;;5097057;28;20355;-73
2021/09/25 06:12:08;;;;;;;6.28;5.68;;;;;;;;;;5095797;28;20381;-71
2021/09/25 06:14:34;;;;;;;10.73;5.97;;;;;;;;;;5097250;28;20020;-72
2021/09/25 06:17:00;;;;;;;6.20;5.60;;;;;;;;;;5096815;28;20028;-72
2021/09/25 06:19:26;;;;;;;11.13;5.72;;;;;;;;;;5096603;28;20031;-71
2021/09/25 06:21:53;;;;;;;7.32;5.18;;;;;;;;;;5094608;28;20089;-72
2021/09/25 06:24:19;;;;;;;5.85;5.35;;;;;;;;;;5095848;28;20028;-73
2021/09/25 06:26:45;;;;;;;9.63;4.88;;;;;;;;;;5096629;28;20036;-72
2021/09/25 06:29:11;;;;;;;6.10;5.47;;;;;;;;;;5096776;28;20020;-73
2021/09/25 06:31:37;;;;;;;8.32;5.07;;;;;;;;;;5096099;28;20016;-72
2021/09/25 06:34:03;;;;;;;5.68;5.18;;;;;;;;;;5095429;28;20028;-73
2021/09/25 06:36:29;;;;;;;6.47;5.82;;;;;;;;;;5095838;28;20109;-73
2021/09/25 06:38:55;;;;;;;6.35;5.75;;;;;;;;;;5096343;28;20020;-72
2021/09/25 06:41:21;;;;;;;5.22;4.72;;;;;;;;;;5091392;28;20030;-72
2021/09/25 06:43:48;;;;;;;8.52;5.32;;;;;;;;;;5095936;28;20029;-72
2021/09/25 06:46:14;;;;;;;19.58;5.30;;;;;;;;;;5095623;28;20448;-72
2021/09/25 06:48:40;;;;;;;8.88;5.32;;;;;;;;;;5094993;28;20027;-72
2021/09/25 06:51:07;;;;;;;9.10;5.88;;;;;;;;;;5095769;28;20034;-71
2021/09/25 06:53:33;;;;;;;7.88;6.13;;;;;;;;;;5094493;28;20457;-72
2021/09/25 06:55:59;;;;;;;5.70;4.95;;;;;;;;;;5095559;28;20462;-72
2021/09/25 06:58:25;;;;;;;8.20;6.75;;;;;;;;;;5096163;28;20055;-72
2021/09/25 07:00:51;;;;;;;9.57;5.82;;;;;;;;;;5095277;28;20024;-71
2021/09/25 07:03:17;;;;;;;9.48;5.40;;;;;;;;;;5095663;28;20031;-71
2021/09/25 07:05:43;;;;;;;6.60;5.63;;;;;;;;;;5095143;28;20040;-70
2021/09/25 07:08:10;;;;;;;10.52;5.97;;;;;;;;;;5090537;28;20822;-71
2021/09/25 07:10:37;;;;;;;5.95;5.40;;;;;;;;;;5093597;28;20036;-71
2021/09/25 07:13:04;;;;;;;6.50;5.28;;;;;;;;;;5094544;28;20024;-70
2021/09/25 07:15:30;;;;;;;8.63;5.78;;;;;;;;;;5095533;28;20035;-71
2021/09/25 07:17:56;;;;;;;15.25;5.22;;;;;;;;;;5093652;28;20024;-72
2021/09/25 07:20:22;;;;;;;5.97;5.38;;;;;;;;;;5095119;28;20474;-73
2021/09/25 07:22:51;;;;;;;6.93;4.80;;;;;;;;;;5095313;28;20024;-73
2021/09/25 07:25:18;;;;;;;15.50;5.50;;;;;;;;;;5095217;28;20082;-72
2021/09/25 07:27:44;;;;;;;7.38;5.03;;;;;;;;;;5095364;28;20077;-72
2021/09/25 07:30:11;;;;;;;5.57;5.05;;;;;;;;;;5093527;28;20473;-73
2021/09/25 07:32:37;;;;;;;6.70;5.22;;;;;;;;;;5095606;28;20024;-72
2021/09/25 07:35:03;;;;;;;5.55;5.05;;;;;;;;;;5094713;28;20532;-72
2021/09/25 07:37:29;;;;;;;10.43;5.60;;;;;;;;;;5094702;28;20133;-73
2021/09/25 07:39:55;;;;;;;5.80;5.28;;;;;;;;;;5093516;28;20024;-73
2021/09/25 07:42:21;;;;;;;7.47;5.50;;;;;;;;;;5093933;28;20028;-72
2021/09/25 07:44:48;;;;;;;7.10;5.13;;;;;;;;;;5094446;28;20044;-72
2021/09/25 07:47:14;;;;;;;5.63;5.10;;;;;;;;;;5094558;28;20096;-72
2021/09/25 07:49:40;;;;;;;11.45;4.85;;;;;;;;;;5094887;28;20036;-74
2021/09/25 07:52:06;;;;;;;13.40;6.15;;;;;;;;;;5093750;28;20028;-79
2021/09/25 07:54:32;;;;;;;9.50;6.60;;;;;;;;;;5094056;28;20099;-74
2021/09/25 07:56:58;;;;;;;15.00;6.90;;;;;;;;;;5094621;28;20050;-74
2021/09/25 07:59:24;;;;;;;17.10;7.20;;;;;;;;;;5094011;28;20462;-75
2021/09/25 08:01:50;;;;;;;26.55;7.20;;;;;;;;;;5094516;28;20385;-75
2021/09/25 08:04:17;;;;;;;10.52;6.82;;;;;;;;;;5094093;28;20024;-75
2021/09/25 08:06:43;;;;;;;9.25;5.90;;;;;;;;;;5093880;28;20031;-74
2021/09/25 08:09:09;;;;;;;15.00;6.22;;;;;;;;;;5093730;28;20024;-73
2021/09/25 08:11:35;;;;;;;9.73;6.18;;;;;;;;;;5094099;28;20031;-74
2021/09/25 08:14:01;;;;;;;6.03;5.43;;;;;;;;;;5094272;28;20032;-74
2021/09/25 08:16:27;;;;;;;12.27;6.03;;;;;;;;;;5094207;28;20106;-74
2021/09/25 08:18:56;;;;;;;12.07;5.72;;;;;;;;;;5094394;28;20024;-74
2021/09/25 08:21:22;;;;;;;7.60;6.05;;;;;;;;;;5093878;28;20025;-74
2021/09/25 08:23:48;;;;;;;6.13;4.88;;;;;;;;;;5094210;28;20040;-74
2021/09/25 08:26:14;;;;;;;7.63;5.55;;;;;;;;;;5093373;28;20359;-75
2021/09/25 08:28:40;;;;;;;6.53;5.82;;;;;;;;;;5094307;28;20108;-74
2021/09/25 08:31:06;;;;;;;9.10;6.05;;;;;;;;;;5093545;28;20020;-74
2021/09/25 08:33:33;;;;;;;8.82;5.20;;;;;;;;;;5094086;28;20024;-74
2021/09/25 08:36:01;;;;;;;9.32;6.00;;;;;;;;;;5094187;28;20032;-75
2021/09/25 08:38:27;;;;;;;7.72;5.75;;;;;;;;;;5093783;28;20046;-75
2021/09/25 08:40:54;;;;;;;8.32;7.07;;;;;;;;;;5094011;28;20020;-75
2021/09/25 08:43:24;;;;;;;8.55;6.70;;;;;;;;;;5093736;28;20036;-76
2021/09/25 08:45:52;;;;;;;12.70;7.47;;;;;;;;;;5094467;28;20048;-74
2021/09/25 08:48:20;;;;;;;10.68;7.28;;;;;;;;;;5097695;28;20434;-74
2021/09/25 08:50:46;;;;;;;9.65;6.53;;;;;;;;;;5097635;28;20027;-73
2021/09/25 08:53:12;;;;;;;8.23;7.43;;;;;;;;;;5098225;28;20063;-75
2021/09/25 08:55:38;;;;;;;9.90;7.80;;;;;;;;;;5098016;28;20662;-75
2021/09/25 08:58:06;;;;;;;9.73;8.65;;;;;;;;;;5097510;28;20051;-75
2021/09/25 09:00:33;;;;;;;15.85;9.10;;;;;;;;;;5097788;28;20032;-75
2021/09/25 09:03:15;;;;;;;13.13;7.55;;;;;;;;;;5097152;28;20083;-74
2021/09/25 09:05:41;;;;;;;;;;;;;;;;;;5098093;28;20032;-76
2021/09/25 09:08:07;;;;;;;8.43;7.63;;;;;;;;;;5097865;28;19911;-73
2021/09/25 09:10:34;;;;;;;9.60;8.25;;;;;;;;;;5100264;28;20080;-75
2021/09/25 09:13:00;;;;;;;10.77;7.25;;;;;;;;;;5099918;28;20577;-74
2021/09/25 09:15:33;;;;;;;9.75;7.82;;;;;;;;;;5101725;28;20509;-76
2021/09/25 09:18:01;;;;;;;8.57;6.97;;;;;;;;;;5100426;28;20365;-75
2021/09/25 09:20:28;;;;;;;8.60;7.47;;;;;;;;;;5100045;28;20052;-73
2021/09/25 09:23:14;;;;;;;11.95;7.75;;;;;;;;;;5100265;28;20093;-74
2021/09/25 09:25:40;;;;;;;26.20;8.55;;;;;;;;;;5099789;28;20435;-75
2021/09/25 09:28:14;;;;;;;10.90;7.65;;;;;;;;;;5099479;28;20032;-77
2021/09/25 09:30:47;;;;;;;33.78;8.43;;;;;;;;;;5100065;28;20120;-73
2021/09/25 09:33:33;;;;;;;9.15;6.70;;;;;;;;;;5099899;28;20423;-74
2021/09/25 09:36:19;;;;;;;14.85;8.30;;;;;;;;;;5096219;28;20028;-75
2021/09/25 09:38:50;;;;;;;11.23;7.75;;;;;;;;;;5098874;28;20024;-74
2021/09/25 09:41:17;;;;;;;8.98;6.85;;;;;;;;;;5100237;28;20107;-75
2021/09/25 09:43:43;;;;;;;8.55;7.85;;;;;;;;;;5101223;28;20032;-76
2021/09/25 09:46:09;;;;;;;15.45;9.00;;;;;;;;;;5100098;28;20087;-77
2021/09/25 09:48:35;;;;;;;9.35;8.43;;;;;;;;;;5100876;28;20531;-75
2021/09/25 09:51:01;;;;;;;13.70;8.75;;;;;;;;;;5099110;28;20444;-76
2021/09/25 09:53:30;;;;;;;8.20;7.50;;;;;;;;;;5100179;28;20028;-76
2021/09/25 09:56:16;;;;;;;9.70;8.75;;;;;;;;;;5100690;28;20035;-76
2021/09/25 09:58:42;;;;;;;9.65;8.65;;;;;;;;;;5098429;28;20410;-74
2021/09/25 10:01:08;;;;;;;10.40;8.82;;;;;;;;;;5098186;28;20024;-75
2021/09/25 10:03:34;;;;;;;12.02;8.70;;;;;;;;;;5100499;28;20023;-76
2021/09/25 10:06:00;;;;;;;11.77;8.25;;;;;;;;;;5098983;28;20047;-75
2021/09/25 10:08:27;;;;;;;9.95;7.72;;;;;;;;;;5098762;28;20114;-75
2021/09/25 10:10:53;;;;;;;21.80;18.48;;;;;;;;;;5097817;28;20016;-74
2021/09/25 10:13:19;;;;;;;14.60;12.75;;;;;;;;;;5099502;28;20432;-73
2021/09/25 10:15:45;;;;;;;17.60;15.85;;;;;;;;;;5098358;28;20016;-72
2021/09/25 10:18:11;;;;;;;13.18;11.77;;;;;;;;;;5098105;28;20024;-72
2021/09/25 10:20:37;;;;;;;16.42;13.93;;;;;;;;;;5097434;28;20042;-72
2021/09/25 10:23:03;;;;;;;12.88;11.57;;;;;;;;;;5099304;28;20027;-71
2021/09/25 10:25:29;;;;;;;17.77;12.02;;;;;;;;;;5098678;28;20036;-73
2021/09/25 10:27:57;;;;;;;9.70;8.77;;;;;;;;;;5098588;28;20095;-72
2021/09/25 10:30:33;;;;;;;10.88;9.88;;;;;;;;;;5097889;28;20020;-73
2021/09/25 10:32:59;;;;;;;12.02;9.80;;;;;;;;;;5099073;28;20028;-73
2021/09/25 10:35:26;;;;;;;13.02;10.50;;;;;;;;;;5098858;28;20420;-73
2021/09/25 10:37:52;;;;;;;11.65;10.07;;;;;;;;;;5099139;28;20473;-74
2021/09/25 10:40:20;;;;;;;12.10;10.38;;;;;;;;;;5097863;28;20028;-75
2021/09/25 10:42:47;;;;;;;13.43;10.80;;;;;;;;;;5098784;28;20031;-74
2021/09/25 10:45:31;;;;;;;10.98;9.88;;;;;;;;;;5099158;28;20473;-74
2021/09/25 10:48:05;;;;;;;16.98;11.10;;;;;;;;;;5098464;28;20028;-75
2021/09/25 10:50:31;;;;;;;10.35;9.25;;;;;;;;;;5097654;28;20036;-74
2021/09/25 10:53:17;;;;;;;15.27;10.38;;;;;;;;;;5099120;28;20027;-74
2021/09/25 10:55:44;;;;;;;12.63;10.40;;;;;;;;;;5097794;28;20085;-74
2021/09/25 10:58:16;;;;;;;10.70;9.57;;;;;;;;;;5098789;28;20070;-75
2021/09/25 11:00:54;;;;;;;19.27;11.02;;;;;;;;;;5097549;28;20024;-74
2021/09/25 11:03:44;;;;;;;11.20;10.10;;;;;;;;;;5098611;28;20028;-74
2021/09/25 11:06:13;;;;;;;13.82;9.02;;;;;;;;;;5097835;28;20035;-75
2021/09/25 11:08:47;;;;;;;9.68;8.70;;;;;;;;;;5097625;28;20082;-75
2021/09/25 11:11:14;;;;;;;9.68;7.40;;;;;;;;;;5095842;28;20457;-74
2021/09/25 11:14:00;;;;;;;18.73;8.43;;;;;;;;;;5096831;28;20059;-73
2021/09/25 11:16:46;;;;;;;8.63;7.38;;;;;;;;;;5094123;28;20366;-75
2021/09/25 11:19:12;;;;;;;9.27;8.32;;;;;;;;;;5092563;28;20024;-71
2021/09/25 11:21:38;;;;;;;9.52;8.48;;;;;;;;;;5094038;28;20028;-71
2021/09/25 11:24:04;;;;;;;9.30;7.50;;;;;;;;;;5095688;28;20028;-72
2021/09/25 11:26:35;;;;;;;9.48;8.55;;;;;;;;;;5095065;28;20044;-73
2021/09/25 11:29:08;;;;;;;9.43;7.78;;;;;;;;;;5095559;28;20515;-75
2021/09/25 11:31:34;;;;;;;9.48;7.90;;;;;;;;;;5094024;28;20035;-75
2021/09/25 11:34:00;;;;;;;10.25;9.02;;;;;;;;;;5094820;28;20654;-75
2021/09/25 11:36:28;;;;;;;9.15;8.15;;;;;;;;;;5094982;28;20484;-73
2021/09/25 11:38:55;;;;;;;9.15;8.32;;;;;;;;;;5095886;28;20153;-73
2021/09/25 11:41:21;;;;;;;9.40;8.48;;;;;;;;;;5093626;28;20500;-75
2021/09/25 11:43:55;;;;;;;27.92;9.60;;;;;;;;;;5094274;28;20039;-81
2021/09/25 11:46:22;;;;;;;11.88;8.38;;;;;;;;;;5095247;28;20021;-81
2021/09/25 11:48:48;;;;;;;10.23;7.93;;;;;;;;;;5095416;28;20032;-80
2021/09/25 11:51:14;;;;;;;8.43;7.70;;;;;;;;;;5093171;28;20017;-81
2021/09/25 11:53:44;;;;;;;8.70;7.38;;;;;;;;;;5094464;28;20684;-83
2021/09/25 11:56:10;;;;;;;8.23;7.43;;;;;;;;;;5095234;28;20024;-82
2021/09/25 11:58:36;;;;;;;10.13;9.13;;;;;;;;;;5094544;28;20134;-81
2021/09/25 12:01:02;;;;;;;8.90;8.13;;;;;;;;;;5093373;28;20024;-81
2021/09/25 12:03:29;;;;;;;10.70;8.63;;;;;;;;;;5095424;28;20466;-81
2021/09/25 12:05:55;;;;;;;9.35;8.48;;;;;;;;;;5094341;28;20032;-80
2021/09/25 12:08:24;;;;;;;11.05;8.40;;;;;;;;;;5094812;28;20028;-81
2021/09/25 12:10:51;;;;;;;8.98;8.15;;;;;;;;;;5094063;28;20110;-80
2021/09/25 12:13:19;;;;;;;10.02;9.13;;;;;;;;;;5094895;28;20027;-80
2021/09/25 12:15:46;;;;;;;10.88;7.03;;;;;;;;;;5094474;28;20036;-80
2021/09/25 12:18:14;;;;;;;8.82;7.93;;;;;;;;;;5094219;28;20035;-80
2021/09/25 12:20:41;;;;;;;8.85;8.00;;;;;;;;;;5092905;28;20106;-81
2021/09/25 12:23:07;;;;;;;11.13;8.13;;;;;;;;;;5095039;28;20032;-80
2021/09/25 12:25:34;;;;;;;10.93;8.23;;;;;;;;;;5094446;28;20067;-79
2021/09/25 12:28:01;;;;;;;13.77;8.52;;;;;;;;;;5094370;28;20020;-79
2021/09/25 12:30:27;;;;;;;8.82;7.93;;;;;;;;;;5092642;28;20024;-79
2021/09/25 12:33:00;;;;;;;9.90;8.80;;;;;;;;;;5094933;28;20066;-80
2021/09/25 12:35:27;;;;;;;8.88;8.18;;;;;;;;;;5094187;28;20024;-76
2021/09/25 12:37:53;;;;;;;11.82;7.63;;;;;;;;;;5094001;28;20029;-78
2021/09/25 12:40:20;;;;;;;8.32;7.60;;;;;;;;;;5091629;28;20016;-77
2021/09/25 12:42:46;;;;;;;8.32;7.55;;;;;;;;;;5094029;28;20032;-78
2021/09/25 12:45:13;;;;;;;11.07;7.72;;;;;;;;;;5093849;28;20051;-78
2021/09/25 12:47:39;;;;;;;8.50;7.70;;;;;;;;;;5094296;28;20031;-79
2021/09/25 12:50:28;;;;;;;7.80;7.10;;;;;;;;;;5093247;28;20105;-77
2021/09/25 12:52:55;;;;;;;7.80;7.03;;;;;;;;;;5093020;28;20024;-75
2021/09/25 12:55:21;;;;;;;7.45;6.35;;;;;;;;;;5093329;28;20024;-80
2021/09/25 12:57:55;;;;;;;10.45;5.65;;;;;;;;;;5093737;28;20051;-78
2021/09/25 13:00:26;;;;;;;10.30;6.00;;;;;;;;;;5092799;28;20369;-79
2021/09/25 13:02:52;;;;;;;17.63;5.70;;;;;;;;;;5094297;28;20025;-78
2021/09/25 13:05:22;;;;;;;11.15;6.65;;;;;;;;;;5093068;28;20282;-77
2021/09/25 13:07:48;;;;;;;8.65;5.60;;;;;;;;;;5093683;28;20025;-77
2021/09/25 13:10:16;;;;;;;11.73;5.30;;;;;;;;;;5092865;28;20024;-78
2021/09/25 13:12:44;;;;;;;6.30;5.43;;;;;;;;;;5097065;28;20024;-78
2021/09/25 13:15:12;;;;;;;8.95;6.32;;;;;;;;;;5097237;28;20070;-78
2021/09/25 13:17:39;;;;;;;5.75;5.25;;;;;;;;;;5096374;28;20020;-80
2021/09/25 13:20:05;;;;;;;8.32;5.82;;;;;;;;;;5096626;28;20039;-81
2021/09/25 13:22:32;;;;;;;6.25;5.65;;;;;;;;;;5096326;28;20038;-78
2021/09/25 13:24:59;;;;;;;5.57;5.07;;;;;;;;;;5093770;28;20043;-79
2021/09/25 13:27:26;;;;;;;8.95;4.30;;;;;;;;;;5097218;28;20117;-78
2021/09/25 13:29:52;;;;;;;9.68;5.50;;;;;;;;;;5093207;28;20051;-75
2021/09/25 13:32:19;;;;;;;6.47;5.88;;;;;;;;;;5095546;28;20016;-74
2021/09/25 13:34:45;;;;;;;4.88;4.43;;;;;;;;;;5098322;28;20036;-73
2021/09/25 13:37:11;;;;;;;9.02;4.50;;;;;;;;;;5099242;28;20028;-73
2021/09/25 13:39:37;;;;;;;14.98;6.25;;;;;;;;;;5099145;28;20557;-76
2021/09/25 13:42:03;;;;;;;6.60;5.65;;;;;;;;;;5099313;28;20028;-75
2021/09/25 13:44:29;;;;;;;5.15;4.65;;;;;;;;;;5098124;28;20028;-74
2021/09/25 13:46:55;;;;;;;11.57;5.70;;;;;;;;;;5099609;28;20036;-83
2021/09/25 13:49:21;;;;;;;13.27;5.50;;;;;;;;;;5099793;28;20469;-78
2021/09/25 13:51:47;;;;;;;7.60;5.35;;;;;;;;;;5100290;28;20024;-78
2021/09/25 13:54:14;;;;;;;16.13;6.32;;;;;;;;;;5098524;28;20024;-76
2021/09/25 13:56:40;;;;;;;5.45;4.30;;;;;;;;;;5098916;28;20032;-81
2021/09/25 13:59:06;;;;;;;5.13;4.57;;;;;;;;;;5100550;28;20123;-82
2021/09/25 14:01:32;;;;;;;5.75;5.25;;;;;;;;;;5098980;28;20039;-79
2021/09/25 14:03:59;;;;;;;8.27;5.93;;;;;;;;;;5097516;28;20123;-81
2021/09/25 14:06:25;;;;;;;4.88;4.47;;;;;;;;;;5097791;28;20020;-83
2021/09/25 14:08:51;;;;;;;5.47;5.00;;;;;;;;;;5097929;28;20111;-79
2021/09/25 14:11:17;;;;;;;7.47;5.07;;;;;;;;;;5091977;28;20031;-85
2021/09/25 14:13:43;;;;;;;6.45;5.18;;;;;;;;;;5098267;28;20058;-78
2021/09/25 14:16:10;;;;;;;9.75;6.03;;;;;;;;;;5098525;28;20477;-79
2021/09/25 14:18:37;;;;;;;6.15;5.35;;;;;;;;;;5097571;28;20058;-83
2021/09/25 14:21:04;;;;;;;5.45;4.88;;;;;;;;;;5098008;28;20024;-85
2021/09/25 14:23:30;;;;;;;9.38;4.40;;;;;;;;;;5098698;28;20023;-78
2021/09/25 14:25:56;;;;;;;5.30;4.80;;;;;;;;;;5096851;28;20047;-74
2021/09/25 14:28:22;;;;;;;10.23;5.18;;;;;;;;;;5095618;28;20031;-79
2021/09/25 14:30:49;;;;;;;11.75;5.30;;;;;;;;;;5095819;28;20376;-72
2021/09/25 14:33:15;;;;;;;11.80;6.32;;;;;;;;;;5093999;28;20021;-73
2021/09/25 14:35:41;;;;;;;10.25;7.05;;;;;;;;;;5095415;28;20454;-79